Time;durP1;ratioP1;P1;durP2;ratioP2;P2;SDS_P1;SDS_P2;PMS_P1;PMS_P2;Temp;Humidity;BMP_temperature;BMP_pressure;BME280_temperature;BME280_humidity;BME280_pressure;Samples;Min_cycle;Max_cycle;Signal;HPM_P1;HPM_P2
2021/03/28 00:00:26;;;;;;;7.30;4.85;;;3.80;92.00;;;;;;2016409;29;20048;-71
2021/03/28 00:01:34;;;;;;;6.43;4.45;;;3.80;92.10;;;;;;2016329;29;20072;-71
2021/03/28 00:02:58;;;;;;;6.72;4.55;;;3.80;92.10;;;;;;2016185;29;20095;-71
2021/03/28 00:04:04;;;;;;;7.75;4.63;;;3.80;92.20;;;;;;2015781;29;20044;-71
2021/03/28 00:05:10;;;;;;;6.18;4.50;;;3.80;92.20;;;;;;2015813;29;20120;-71
2021/03/28 00:06:31;;;;;;;8.30;4.40;;;3.80;92.20;;;;;;2016451;29;20552;-72
2021/03/28 00:07:43;;;;;;;7.32;4.63;;;3.80;92.30;;;;;;2016359;29;20437;-71
2021/03/28 00:08:48;;;;;;;8.80;5.22;;;3.80;92.30;;;;;;2016237;29;20056;-71
2021/03/28 00:09:56;;;;;;;9.30;5.10;;;3.70;92.30;;;;;;2015984;29;20178;-72
2021/03/28 00:11:14;;;;;;;10.43;5.45;;;3.70;92.30;;;;;;2016350;29;20032;-71
2021/03/28 00:12:37;;;;;;;11.23;5.70;;;3.70;92.40;;;;;;2023295;29;20215;-72
2021/03/28 00:13:52;;;;;;;9.80;5.47;;;3.70;92.50;;;;;;2023476;29;20060;-71
2021/03/28 00:15:16;;;;;;;10.65;5.20;;;3.60;92.60;;;;;;2008060;29;20030;-71
2021/03/28 00:16:19;;;;;;;8.25;4.68;;;3.60;92.60;;;;;;2011303;29;20033;-71
2021/03/28 00:17:19;;;;;;;8.68;5.10;;;3.60;92.60;;;;;;2015798;29;20021;-71
2021/03/28 00:18:51;;;;;;;9.63;5.30;;;3.60;92.70;;;;;;2016257;29;20543;-71
2021/03/28 00:20:15;;;;;;;8.48;5.07;;;3.60;92.80;;;;;;2015611;29;20033;-71
2021/03/28 00:21:20;;;;;;;8.68;5.10;;;3.60;92.80;;;;;;2015998;29;20487;-71
2021/03/28 00:22:29;;;;;;;10.40;5.38;;;3.60;92.80;;;;;;2016428;29;20037;-71
2021/03/28 00:23:30;;;;;;;8.77;5.13;;;3.50;92.90;;;;;;2015689;29;20120;-71
2021/03/28 00:24:40;;;;;;;10.40;5.05;;;3.50;92.90;;;;;;2015596;29;20040;-71
2021/03/28 00:26:03;;;;;;;8.48;5.00;;;3.50;92.90;;;;;;2022656;29;20041;-71
2021/03/28 00:27:17;;;;;;;7.30;4.75;;;3.50;93.10;;;;;;2016295;29;20033;-70
2021/03/28 00:28:33;;;;;;;8.30;5.32;;;3.50;93.20;;;;;;2016325;29;20140;-71
2021/03/28 00:30:01;;;;;;;11.27;5.80;;;3.40;93.20;;;;;;2015256;29;20704;-71
2021/03/28 00:31:17;;;;;;;9.55;5.78;;;3.40;93.30;;;;;;2015871;29;20025;-72
2021/03/28 00:32:22;;;;;;;10.98;6.00;;;3.40;93.50;;;;;;2016191;29;20025;-71
2021/03/28 00:33:26;;;;;;;7.18;5.00;;;3.40;93.60;;;;;;2015628;29;20128;-71
2021/03/28 00:34:40;;;;;;;6.90;4.78;;;3.40;93.50;;;;;;2015719;29;20400;-72
2021/03/28 00:35:50;;;;;;;9.45;5.50;;;3.40;93.50;;;;;;2016296;29;20033;-70
2021/03/28 00:36:58;;;;;;;8.50;5.00;;;3.40;93.50;;;;;;2016478;29;20025;-71
2021/03/28 00:38:18;;;;;;;8.98;5.50;;;3.40;93.40;;;;;;2016456;29;20087;-71
2021/03/28 00:39:34;;;;;;;8.43;5.43;;;3.40;93.40;;;;;;2016089;29;20041;-72
2021/03/28 00:40:35;;;;;;;7.60;4.95;;;3.40;93.50;;;;;;2016279;29;20048;-72
2021/03/28 00:41:39;;;;;;;11.90;5.78;;;3.40;93.50;;;;;;2016325;29;20041;-71
2021/03/28 00:42:47;;;;;;;8.07;5.03;;;3.40;93.50;;;;;;2023343;29;20033;-71
2021/03/28 00:43:55;;;;;;;9.98;5.35;;;3.40;93.40;;;;;;2023182;29;20037;-71
2021/03/28 00:45:09;;;;;;;8.57;5.50;;;3.40;93.40;;;;;;2022481;29;20496;-71
2021/03/28 00:46:23;;;;;;;7.40;4.88;;;3.40;93.40;;;;;;2016228;29;20033;-71
2021/03/28 00:47:27;;;;;;;7.72;4.97;;;3.50;93.40;;;;;;2015649;29;20052;-71
2021/03/28 00:48:30;;;;;;;8.70;5.07;;;3.40;93.40;;;;;;2015171;29;20021;-71
2021/03/28 00:49:42;;;;;;;6.57;4.75;;;3.40;93.40;;;;;;2015025;29;20156;-71
2021/03/28 00:51:06;;;;;;;9.52;5.32;;;3.40;93.40;;;;;;2008786;29;20033;-71
2021/03/28 00:52:24;;;;;;;9.10;4.82;;;3.40;93.40;;;;;;2015781;29;20105;-71
2021/03/28 00:53:48;;;;;;;9.40;5.00;;;3.40;93.40;;;;;;2016085;29;20029;-71
2021/03/28 00:54:51;;;;;;;8.70;5.25;;;3.40;93.30;;;;;;2016210;29;20488;-71
2021/03/28 00:56:02;;;;;;;9.18;5.05;;;3.50;93.30;;;;;;2023140;29;20033;-71
2021/03/28 00:57:19;;;;;;;8.63;5.20;;;3.50;93.20;;;;;;2023073;29;20071;-71
2021/03/28 00:58:59;;;;;;;7.45;4.90;;;3.50;93.20;;;;;;2023055;29;20025;-71
2021/03/28 01:00:52;;;;;;;7.70;4.88;;;3.50;93.10;;;;;;2016143;29;20124;-71
2021/03/28 01:02:14;;;;;;;8.65;5.25;;;3.50;93.00;;;;;;2016064;29;20037;-71
2021/03/28 01:03:33;;;;;;;6.35;4.75;;;3.50;93.00;;;;;;2016126;29;20059;-71
2021/03/28 01:04:56;;;;;;;6.97;4.72;;;3.40;93.00;;;;;;2015425;29;20119;-71
2021/03/28 01:06:00;;;;;;;8.32;4.90;;;3.40;93.10;;;;;;2015632;29;20029;-72
2021/03/28 01:07:27;;;;;;;8.25;4.88;;;3.30;93.20;;;;;;2016081;29;20493;-71
2021/03/28 01:08:44;;;;;;;8.00;5.10;;;3.40;93.30;;;;;;2016015;29;20168;-71
2021/03/28 01:10:29;;;;;;;7.97;4.85;;;3.30;93.20;;;;;;2015849;29;20587;-71
2021/03/28 01:11:48;;;;;;;9.00;4.97;;;3.30;93.40;;;;;;2030294;29;20057;-71
2021/03/28 01:13:23;;;;;;;8.05;5.13;;;3.30;93.50;;;;;;2016053;29;20057;-71
2021/03/28 01:14:29;;;;;;;7.82;5.05;;;3.20;93.50;;;;;;2023124;29;20044;-70
2021/03/28 01:16:14;;;;;;;10.52;5.30;;;3.20;93.60;;;;;;2022445;29;20029;-71
2021/03/28 01:17:21;;;;;;;9.05;5.13;;;3.20;93.60;;;;;;2015951;29;20367;-71
2021/03/28 01:18:38;;;;;;;7.70;4.85;;;3.20;93.80;;;;;;2015784;29;20025;-70
2021/03/28 01:19:48;;;;;;;6.15;4.75;;;3.10;93.80;;;;;;2015585;29;20112;-71
2021/03/28 01:21:22;;;;;;;7.53;5.20;;;3.20;93.90;;;;;;2015314;29;20959;-71
2021/03/28 01:22:29;;;;;;;7.38;5.32;;;3.10;93.90;;;;;;2015674;29;20068;-71
2021/03/28 01:23:37;;;;;;;8.88;5.53;;;3.10;94.10;;;;;;2015215;29;20041;-71
2021/03/28 01:24:46;;;;;;;8.73;5.50;;;3.10;94.10;;;;;;2015370;29;20029;-71
2021/03/28 01:26:09;;;;;;;8.07;5.10;;;3.10;94.20;;;;;;2015860;29;20497;-70
2021/03/28 01:27:30;;;;;;;7.70;5.20;;;3.10;94.20;;;;;;2015933;29;20029;-71
2021/03/28 01:28:32;;;;;;;;;;;3.10;94.30;;;;;;2016221;29;20513;-72
2021/03/28 01:29:55;;;;;;;9.90;5.15;;;3.00;94.20;;;;;;2015569;29;19924;-71
2021/03/28 01:31:14;;;;;;;8.30;5.43;;;3.00;94.20;;;;;;2015847;29;20379;-71
2021/03/28 01:32:28;;;;;;;8.13;5.13;;;3.00;94.30;;;;;;2015893;29;20551;-71
2021/03/28 01:33:42;;;;;;;10.50;5.22;;;3.00;94.40;;;;;;2015810;29;20061;-71
2021/03/28 01:34:58;;;;;;;7.97;5.30;;;3.00;94.40;;;;;;2015914;29;20029;-71
2021/03/28 01:36:12;;;;;;;8.60;5.15;;;2.90;94.40;;;;;;2015835;29;20120;-71
2021/03/28 01:37:27;;;;;;;6.45;4.90;;;2.90;94.50;;;;;;2015877;29;20025;-71
2021/03/28 01:38:38;;;;;;;10.75;5.85;;;2.90;94.60;;;;;;2015240;29;20496;-71
2021/03/28 01:39:49;;;;;;;9.55;5.78;;;2.90;94.70;;;;;;2015116;29;20485;-71
2021/03/28 01:41:10;;;;;;;9.30;5.65;;;3.00;94.70;;;;;;2016136;29;20045;-71
2021/03/28 01:42:46;;;;;;;9.38;5.78;;;3.00;94.60;;;;;;2016045;29;20148;-71
2021/03/28 01:44:11;;;;;;;8.63;5.40;;;3.00;94.60;;;;;;2015207;29;20567;-71
2021/03/28 01:45:34;;;;;;;9.48;5.78;;;3.00;94.60;;;;;;2015515;29;20056;-71
2021/03/28 01:46:49;;;;;;;8.50;5.55;;;3.00;94.80;;;;;;2016000;29;20513;-71
2021/03/28 01:48:28;;;;;;;9.75;5.45;;;3.00;94.70;;;;;;2015838;29;20065;-71
2021/03/28 01:50:03;;;;;;;8.10;5.55;;;3.00;94.60;;;;;;2038744;29;20044;-71
2021/03/28 01:51:34;;;;;;;7.95;5.28;;;3.00;94.60;;;;;;2022777;29;20071;-71
2021/03/28 01:52:44;;;;;;;9.43;5.30;;;2.90;94.60;;;;;;2019755;29;20176;-71
2021/03/28 01:53:57;;;;;;;9.98;5.45;;;2.90;94.70;;;;;;2016005;29;20029;-71
2021/03/28 01:55:20;;;;;;;9.18;5.68;;;2.90;94.70;;;;;;2016012;29;20052;-71
2021/03/28 01:56:40;;;;;;;9.20;5.63;;;2.90;94.80;;;;;;2023013;29;20056;-71
2021/03/28 01:58:06;;;;;;;7.57;5.30;;;2.90;94.90;;;;;;2015466;29;20037;-71
2021/03/28 01:59:27;;;;;;;8.60;5.60;;;2.80;94.90;;;;;;2015371;29;20029;-71
2021/03/28 02:00:31;;;;;;;9.82;5.65;;;2.80;94.90;;;;;;2015628;29;20044;-71
2021/03/28 02:01:55;;;;;;;9.20;5.85;;;2.80;95.00;;;;;;2015523;29;20422;-71
2021/03/28 02:03:17;;;;;;;8.13;5.70;;;2.80;95.00;;;;;;2015699;29;20065;-71
2021/03/28 02:04:40;;;;;;;9.05;5.57;;;2.80;95.10;;;;;;2015999;29;20111;-70
2021/03/28 02:06:15;;;;;;;8.38;5.60;;;2.80;95.20;;;;;;2015864;29;20099;-70
2021/03/28 02:07:39;;;;;;;9.88;6.25;;;2.70;95.20;;;;;;2015500;29;20041;-70
2021/03/28 02:08:58;;;;;;;10.32;5.75;;;2.70;95.30;;;;;;2014979;29;20037;-70
2021/03/28 02:10:37;;;;;;;10.93;6.47;;;2.70;95.30;;;;;;2015269;29;20029;-70
2021/03/28 02:12:14;;;;;;;10.77;6.97;;;2.70;95.30;;;;;;2039002;29;20512;-70
2021/03/28 02:13:27;;;;;;;12.18;7.28;;;2.70;95.30;;;;;;2027787;29;20124;-70
2021/03/28 02:14:48;;;;;;;14.80;8.57;;;2.70;95.40;;;;;;2015860;29;20414;-72
2021/03/28 02:16:09;;;;;;;16.52;9.30;;;2.70;95.40;;;;;;2015644;29;20055;-71
2021/03/28 02:17:25;;;;;;;15.80;8.98;;;2.70;95.40;;;;;;2015859;29;20044;-71
2021/03/28 02:19:04;;;;;;;15.73;8.73;;;2.70;95.40;;;;;;2015515;29;20029;-71
2021/03/28 02:20:14;;;;;;;14.07;8.10;;;2.70;95.30;;;;;;2015652;29;20029;-71
2021/03/28 02:21:28;;;;;;;13.68;8.50;;;2.70;95.30;;;;;;2015581;29;20026;-72
2021/03/28 02:22:52;;;;;;;13.52;7.95;;;2.70;95.30;;;;;;2015660;29;20029;-71
2021/03/28 02:24:21;;;;;;;12.15;7.78;;;2.70;95.30;;;;;;2015688;29;20599;-71
2021/03/28 02:25:35;;;;;;;14.63;8.20;;;2.70;95.40;;;;;;2015650;29;20505;-71
2021/03/28 02:26:59;;;;;;;12.00;7.72;;;2.70;95.50;;;;;;2015069;29;20048;-71
2021/03/28 02:28:37;;;;;;;13.02;7.43;;;2.70;95.40;;;;;;2015315;29;20032;-71
2021/03/28 02:30:10;;;;;;;12.52;7.35;;;2.70;95.30;;;;;;2015315;29;20029;-71
2021/03/28 02:31:18;;;;;;;9.98;6.60;;;2.70;95.30;;;;;;2027586;29;20053;-71
2021/03/28 02:32:38;;;;;;;10.27;6.80;;;2.70;95.30;;;;;;2021960;29;20037;-72
2021/03/28 02:33:51;;;;;;;10.70;6.95;;;2.60;95.30;;;;;;2015018;29;20543;-71
2021/03/28 02:35:02;;;;;;;9.88;7.07;;;2.70;95.30;;;;;;2015255;29;20025;-71
2021/03/28 02:36:31;;;;;;;10.98;7.20;;;2.70;95.60;;;;;;2015118;29;20128;-71
2021/03/28 02:37:53;;;;;;;10.82;7.13;;;2.70;95.50;;;;;;2015239;29;20052;-70
2021/03/28 02:39:17;;;;;;;9.73;6.20;;;2.70;95.40;;;;;;2015567;29;20099;-70
2021/03/28 02:40:44;;;;;;;10.23;6.65;;;2.60;95.40;;;;;;2015652;29;20033;-69
2021/03/28 02:42:12;;;;;;;9.38;6.10;;;2.70;95.40;;;;;;2014927;29;20468;-71
2021/03/28 02:43:18;;;;;;;8.77;6.18;;;2.70;95.40;;;;;;2015315;29;20131;-71
2021/03/28 02:44:38;;;;;;;8.95;6.10;;;2.70;95.40;;;;;;2015447;29;20037;-70
2021/03/28 02:45:46;;;;;;;8.93;5.75;;;2.70;95.40;;;;;;2015439;29;20036;-70
2021/03/28 02:47:03;;;;;;;8.48;6.13;;;2.60;95.40;;;;;;2015494;29;20037;-70
2021/03/28 02:48:17;;;;;;;8.50;5.97;;;2.70;95.40;;;;;;2015508;29;20136;-70
2021/03/28 02:50:06;;;;;;;8.52;5.60;;;2.60;95.30;;;;;;2015187;29;20508;-70
2021/03/28 02:51:31;;;;;;;8.73;5.45;;;2.70;95.50;;;;;;2015781;29;20037;-70
2021/03/28 02:52:54;;;;;;;7.43;5.10;;;2.70;95.50;;;;;;2015783;29;20083;-71
2021/03/28 02:54:33;;;;;;;8.35;5.78;;;2.70;95.40;;;;;;2015477;29;20039;-71
2021/03/28 02:56:03;;;;;;;7.15;5.45;;;2.70;95.50;;;;;;2015615;29;20029;-71
2021/03/28 02:57:04;;;;;;;9.48;5.45;;;2.70;95.30;;;;;;2015719;29;20115;-70
2021/03/28 02:58:35;;;;;;;8.88;5.70;;;2.70;95.20;;;;;;2014984;29;20502;-70
2021/03/28 02:59:56;;;;;;;7.15;5.30;;;2.70;95.20;;;;;;2015168;29;20044;-70
2021/03/28 03:01:15;;;;;;;9.80;5.65;;;2.70;95.50;;;;;;2022885;29;20079;-71
2021/03/28 03:02:30;;;;;;;8.43;5.28;;;2.70;95.10;;;;;;2020607;29;20044;-71
2021/03/28 03:03:37;;;;;;;9.05;5.57;;;2.70;95.10;;;;;;2014949;29;20481;-70
2021/03/28 03:04:49;;;;;;;9.57;6.15;;;2.70;95.10;;;;;;2014917;29;20045;-70
2021/03/28 03:06:18;;;;;;;10.23;6.38;;;2.70;95.00;;;;;;2015461;29;20060;-71
2021/03/28 03:07:24;;;;;;;13.02;7.05;;;2.70;95.10;;;;;;2015425;29;20605;-70
2021/03/28 03:08:40;;;;;;;10.05;6.60;;;2.70;95.10;;;;;;2015389;29;20033;-70
2021/03/28 03:10:13;;;;;;;12.52;7.13;;;2.70;95.20;;;;;;2015182;29;20461;-70
2021/03/28 03:11:36;;;;;;;11.25;7.03;;;2.70;95.20;;;;;;2016021;29;20123;-70
2021/03/28 03:13:21;;;;;;;11.80;7.35;;;2.70;95.10;;;;;;2016108;29;20095;-70
2021/03/28 03:14:36;;;;;;;14.05;7.47;;;2.70;95.20;;;;;;2033887;29;20049;-70
2021/03/28 03:16:03;;;;;;;13.02;7.75;;;2.60;95.10;;;;;;2016801;29;20033;-69
2021/03/28 03:17:29;;;;;;;14.70;7.45;;;2.60;95.20;;;;;;2024046;29;20041;-70
2021/03/28 03:19:01;;;;;;;14.40;7.50;;;2.60;95.20;;;;;;2016686;29;20123;-70
2021/03/28 03:20:09;;;;;;;16.65;8.13;;;2.60;95.20;;;;;;2016806;29;20469;-70
2021/03/28 03:21:34;;;;;;;15.75;8.57;;;2.60;95.20;;;;;;2016778;29;20039;-70
2021/03/28 03:22:59;;;;;;;14.43;7.35;;;2.60;95.20;;;;;;2016302;29;20377;-70
2021/03/28 03:24:05;;;;;;;16.92;8.25;;;2.60;95.30;;;;;;2016425;29;20033;-70
2021/03/28 03:25:24;;;;;;;15.15;8.40;;;2.60;95.30;;;;;;2016695;29;20493;-70
2021/03/28 03:26:51;;;;;;;12.65;7.60;;;2.60;95.30;;;;;;2016711;29;20782;-70
2021/03/28 03:28:19;;;;;;;13.90;7.82;;;2.60;95.30;;;;;;2016625;29;20404;-70
2021/03/28 03:29:34;;;;;;;12.10;7.43;;;2.50;95.30;;;;;;2016362;29;20041;-70
2021/03/28 03:31:06;;;;;;;11.07;6.78;;;2.50;95.40;;;;;;2016591;29;20052;-71
2021/03/28 03:32:25;;;;;;;11.00;6.32;;;2.60;95.40;;;;;;2016833;29;20068;-70
2021/03/28 03:33:31;;;;;;;11.10;6.50;;;2.60;95.40;;;;;;2016658;29;20421;-70
2021/03/28 03:35:03;;;;;;;9.77;6.05;;;2.60;95.30;;;;;;2016618;29;20025;-70
2021/03/28 03:36:18;;;;;;;10.02;6.20;;;2.50;95.30;;;;;;2016747;29;20446;-70
2021/03/28 03:37:27;;;;;;;11.55;6.80;;;2.60;95.40;;;;;;2016716;29;20030;-70
2021/03/28 03:38:38;;;;;;;9.23;6.25;;;2.60;95.40;;;;;;2016437;29;20028;-70
2021/03/28 03:39:50;;;;;;;;;;;2.60;95.40;;;;;;2016751;29;20033;-70
2021/03/28 03:41:11;;;;;;;9.20;5.75;;;2.50;95.30;;;;;;2016509;29;20379;-70
2021/03/28 03:42:39;;;;;;;9.88;6.00;;;2.50;95.30;;;;;;2015856;29;20433;-70
2021/03/28 03:43:57;;;;;;;10.75;6.00;;;2.50;95.40;;;;;;2011588;29;20124;-70
2021/03/28 03:45:16;;;;;;;8.77;5.85;;;2.50;95.40;;;;;;2016106;29;20037;-70
2021/03/28 03:46:45;;;;;;;8.70;5.60;;;2.50;95.40;;;;;;2016582;29;20029;-70
2021/03/28 03:48:00;;;;;;;8.82;6.28;;;2.40;95.50;;;;;;2016514;29;20040;-70
2021/03/28 03:49:38;;;;;;;8.98;5.80;;;2.40;95.50;;;;;;2023044;29;20056;-70
2021/03/28 03:51:03;;;;;;;9.52;5.70;;;2.40;95.60;;;;;;2039711;29;20040;-70
2021/03/28 03:52:18;;;;;;;9.70;5.97;;;2.40;95.70;;;;;;2016565;29;20091;-71
2021/03/28 03:53:39;;;;;;;8.65;6.18;;;2.40;95.70;;;;;;2016542;29;20126;-71
2021/03/28 03:55:00;;;;;;;9.48;6.20;;;2.30;95.70;;;;;;2016701;29;20036;-71
2021/03/28 03:56:25;;;;;;;11.80;7.28;;;2.30;95.70;;;;;;2015831;29;20025;-71
2021/03/28 03:57:35;;;;;;;10.45;7.18;;;2.30;95.80;;;;;;2011200;29;20067;-72
2021/03/28 03:58:44;;;;;;;17.80;9.45;;;2.30;95.80;;;;;;2015858;29;20087;-70
2021/03/28 04:00:02;;;;;;;15.38;9.07;;;2.40;95.90;;;;;;2016191;29;20036;-70
2021/03/28 04:01:43;;;;;;;16.48;9.43;;;2.40;95.90;;;;;;2016508;29;20456;-71
2021/03/28 04:02:43;;;;;;;13.52;7.75;;;2.40;95.90;;;;;;2039903;29;20095;-70
2021/03/28 04:04:03;;;;;;;13.35;7.60;;;2.40;96.00;;;;;;2027105;29;20062;-70
2021/03/28 04:05:23;;;;;;;10.73;7.00;;;2.50;95.90;;;;;;2016544;28;20033;-70
2021/03/28 04:06:50;;;;;;;12.80;7.45;;;2.60;95.70;;;;;;2016423;29;20520;-69
2021/03/28 04:07:58;;;;;;;9.90;6.88;;;2.50;95.50;;;;;;2015803;29;20425;-69
2021/03/28 04:09:15;;;;;;;14.13;8.15;;;2.50;95.40;;;;;;2015494;29;20040;-70
2021/03/28 04:10:31;;;;;;;14.77;8.93;;;2.60;95.40;;;;;;2016418;29;20041;-71
2021/03/28 04:11:57;;;;;;;17.00;9.55;;;2.50;95.40;;;;;;2016458;29;20423;-70
2021/03/28 04:13:21;;;;;;;13.05;8.55;;;2.50;95.30;;;;;;2015577;29;20045;-71
2021/03/28 04:14:49;;;;;;;13.95;7.90;;;2.60;95.50;;;;;;2016036;29;20033;-72
2021/03/28 04:16:12;;;;;;;17.83;8.63;;;2.60;95.50;;;;;;2016415;29;20036;-71
2021/03/28 04:17:51;;;;;;;12.82;7.88;;;2.60;95.30;;;;;;2016424;29;20476;-71
2021/03/28 04:19:12;;;;;;;13.40;7.88;;;2.60;95.20;;;;;;2016280;29;20033;-71
2021/03/28 04:20:45;;;;;;;11.18;6.97;;;2.60;95.20;;;;;;2016345;29;20618;-71
2021/03/28 04:22:04;;;;;;;10.90;6.88;;;2.60;95.20;;;;;;2016383;29;20041;-71
2021/03/28 04:23:21;;;;;;;11.13;7.60;;;2.60;95.20;;;;;;2015715;29;20108;-71
2021/03/28 04:24:46;;;;;;;13.27;7.50;;;2.60;95.10;;;;;;2016579;29;20037;-71
2021/03/28 04:26:05;;;;;;;11.95;7.55;;;2.60;95.10;;;;;;2016409;29;20033;-71
2021/03/28 04:27:24;;;;;;;12.18;7.68;;;2.50;95.20;;;;;;2016422;29;20029;-71
2021/03/28 04:28:40;;;;;;;13.85;8.05;;;2.50;95.30;;;;;;2016254;29;20053;-71
2021/03/28 04:29:45;;;;;;;19.92;10.05;;;2.50;95.40;;;;;;2016089;29;20029;-71
2021/03/28 04:30:57;;;;;;;18.60;10.13;;;2.50;95.40;;;;;;2015518;29;20084;-71
2021/03/28 04:32:17;;;;;;;20.40;10.32;;;2.50;95.40;;;;;;2015987;29;20025;-71
2021/03/28 04:33:41;;;;;;;19.75;10.68;;;2.50;95.40;;;;;;2016378;29;20029;-71
2021/03/28 04:34:49;;;;;;;18.40;10.25;;;2.50;95.40;;;;;;2015602;29;20029;-71
2021/03/28 04:36:23;;;;;;;19.20;9.50;;;2.50;95.40;;;;;;2016241;29;20135;-71
2021/03/28 04:37:51;;;;;;;15.43;9.35;;;2.50;95.50;;;;;;2020057;29;20029;-71
2021/03/28 04:39:04;;;;;;;17.42;9.23;;;2.50;95.50;;;;;;2016912;29;20567;-72
2021/03/28 04:40:47;;;;;;;16.30;9.57;;;2.50;95.60;;;;;;2016878;29;20413;-72
2021/03/28 04:42:38;;;;;;;14.40;8.38;;;2.40;95.60;;;;;;2015766;29;20476;-70
2021/03/28 04:43:57;;;;;;;20.80;9.88;;;2.50;95.60;;;;;;2016171;29;20029;-71
2021/03/28 04:45:36;;;;;;;19.38;9.82;;;2.40;95.60;;;;;;2016259;29;20036;-72
2021/03/28 04:46:58;;;;;;;20.20;10.48;;;2.50;95.80;;;;;;2016188;29;20033;-71
2021/03/28 04:48:01;;;;;;;22.40;10.27;;;2.40;95.70;;;;;;2016062;29;20076;-72
2021/03/28 04:49:30;;;;;;;23.23;11.00;;;2.40;95.70;;;;;;2015679;29;20045;-71
2021/03/28 04:51:09;;;;;;;30.38;14.77;;;2.40;95.70;;;;;;2015933;29;20037;-71
2021/03/28 04:52:40;;;;;;;21.27;11.45;;;2.50;95.80;;;;;;2016166;29;20469;-71
2021/03/28 04:53:48;;;;;;;17.58;10.27;;;2.60;95.70;;;;;;2015593;29;20029;-71
2021/03/28 04:55:26;;;;;;;19.73;10.10;;;2.60;95.60;;;;;;2015503;29;20453;-71
2021/03/28 04:56:54;;;;;;;16.13;8.82;;;2.70;95.60;;;;;;2015324;29;20394;-71
2021/03/28 04:58:32;;;;;;;15.32;8.45;;;2.80;96.00;;;;;;2011166;29;20104;-70
2021/03/28 04:59:57;;;;;;;13.35;8.00;;;2.80;95.40;;;;;;2004354;29;20033;-71
2021/03/28 05:01:22;;;;;;;12.85;7.72;;;2.90;95.20;;;;;;2011035;29;20477;-71
2021/03/28 05:02:48;;;;;;;14.93;7.72;;;2.90;95.00;;;;;;2015998;29;20052;-71
2021/03/28 05:04:11;;;;;;;11.85;6.95;;;3.00;94.80;;;;;;2015967;29;20025;-71
2021/03/28 05:05:49;;;;;;;10.82;6.63;;;3.00;94.70;;;;;;2007737;29;20045;-70
2021/03/28 05:07:11;;;;;;;9.75;6.53;;;3.10;94.50;;;;;;2012718;29;20520;-70
2021/03/28 05:08:24;;;;;;;11.13;6.95;;;3.10;94.40;;;;;;2015885;29;20029;-69
2021/03/28 05:09:50;;;;;;;11.45;7.00;;;3.10;94.40;;;;;;2015707;29;20039;-70
2021/03/28 05:11:07;;;;;;;12.50;6.88;;;3.10;94.30;;;;;;2015824;29;20056;-69
2021/03/28 05:12:47;;;;;;;10.40;6.57;;;3.10;94.20;;;;;;2015994;29;20032;-71
2021/03/28 05:14:11;;;;;;;9.60;6.22;;;3.20;94.10;;;;;;2017862;29;20497;-71
2021/03/28 05:15:23;;;;;;;9.60;6.07;;;3.20;94.00;;;;;;2039272;29;20051;-71
2021/03/28 05:17:03;;;;;;;9.32;6.43;;;3.20;93.90;;;;;;2018636;29;20047;-71
2021/03/28 05:18:45;;;;;;;18.30;9.63;;;3.30;93.80;;;;;;2023308;29;20440;-71
2021/03/28 05:20:13;;;;;;;20.80;10.23;;;3.30;93.60;;;;;;2018048;29;20600;-71
2021/03/28 05:21:39;;;;;;;23.98;10.05;;;3.30;93.60;;;;;;2016227;29;20449;-71
2021/03/28 05:23:21;;;;;;;19.27;9.57;;;3.30;93.50;;;;;;2015561;29;20041;-71
2021/03/28 05:24:59;;;;;;;19.20;9.23;;;3.30;93.40;;;;;;2015746;29;20021;-70
2021/03/28 05:26:33;;;;;;;21.15;9.52;;;3.30;93.40;;;;;;2018888;29;20136;-71
2021/03/28 05:28:10;;;;;;;22.58;10.10;;;3.30;93.40;;;;;;2016341;29;20040;-71
2021/03/28 05:29:39;;;;;;;19.48;9.85;;;3.40;93.30;;;;;;2015984;29;20044;-71
2021/03/28 05:31:12;;;;;;;16.65;8.40;;;3.40;93.30;;;;;;2016435;29;20540;-71
2021/03/28 05:32:45;;;;;;;13.35;8.50;;;3.40;93.30;;;;;;2023046;29;20028;-70
2021/03/28 05:33:59;;;;;;;14.55;8.10;;;3.40;93.30;;;;;;2019242;29;20089;-70
2021/03/28 05:35:36;;;;;;;15.25;8.30;;;3.40;93.30;;;;;;2014962;29;20077;-70
2021/03/28 05:37:10;;;;;;;14.38;7.97;;;3.50;93.20;;;;;;2025190;29;20045;-69
2021/03/28 05:38:40;;;;;;;14.80;8.43;;;3.50;93.20;;;;;;2015121;29;20037;-72
2021/03/28 05:39:56;;;;;;;11.77;7.60;;;3.60;93.00;;;;;;2015249;29;20048;-70
2021/03/28 05:41:33;;;;;;;11.32;7.50;;;3.60;92.90;;;;;;2015326;29;20032;-69
2021/03/28 05:42:34;;;;;;;11.65;7.53;;;3.70;92.80;;;;;;2012074;29;20104;-71
2021/03/28 05:44:12;;;;;;;11.63;7.38;;;3.80;92.70;;;;;;2007582;29;20516;-70
2021/03/28 05:45:12;;;;;;;9.98;7.40;;;3.80;92.50;;;;;;2015524;29;20048;-70
2021/03/28 05:46:40;;;;;;;12.15;7.63;;;3.90;92.50;;;;;;2015821;29;20049;-70
2021/03/28 05:48:09;;;;;;;12.07;7.90;;;4.00;92.40;;;;;;2015874;29;20045;-69
2021/03/28 05:49:33;;;;;;;11.10;7.20;;;4.00;92.30;;;;;;2015479;29;20573;-70
2021/03/28 05:50:47;;;;;;;10.80;7.32;;;4.20;92.20;;;;;;2015252;29;20037;-70
2021/03/28 05:52:10;;;;;;;10.65;7.10;;;4.20;92.00;;;;;;2015382;29;20045;-70
2021/03/28 05:53:49;;;;;;;11.23;7.65;;;4.30;91.90;;;;;;2015862;29;20029;-71
2021/03/28 05:55:27;;;;;;;13.20;8.23;;;4.40;91.70;;;;;;2015791;29;20409;-71
2021/03/28 05:56:43;;;;;;;12.50;8.07;;;4.40;91.40;;;;;;2032824;29;20059;-71
2021/03/28 05:58:15;;;;;;;11.18;7.78;;;4.50;91.40;;;;;;2015765;29;20492;-70
2021/03/28 05:59:37;;;;;;;11.32;7.90;;;4.50;91.20;;;;;;2015481;29;20039;-71
2021/03/28 06:01:01;;;;;;;11.43;7.50;;;4.60;91.00;;;;;;2015775;29;20025;-71
2021/03/28 06:02:32;;;;;;;11.18;7.35;;;4.60;91.20;;;;;;2015806;29;20025;-71
2021/03/28 06:03:44;;;;;;;15.57;9.77;;;4.70;90.80;;;;;;2016074;29;20476;-70
2021/03/28 06:05:29;;;;;;;14.48;8.95;;;4.70;90.90;;;;;;2015854;29;20083;-71
2021/03/28 06:06:54;;;;;;;15.00;10.73;;;4.70;90.60;;;;;;2016690;29;20045;-71
2021/03/28 06:08:32;;;;;;;15.80;10.43;;;4.80;90.50;;;;;;2011362;29;20037;-71
2021/03/28 06:10:00;;;;;;;12.88;9.13;;;4.70;90.40;;;;;;2015882;29;20029;-71
2021/03/28 06:11:34;;;;;;;13.98;9.30;;;4.80;90.40;;;;;;2022891;29;20032;-70
2021/03/28 06:12:54;;;;;;;14.63;9.70;;;4.80;90.30;;;;;;2018839;29;20033;-70
2021/03/28 06:14:11;;;;;;;14.70;10.23;;;4.90;90.20;;;;;;2015119;29;20066;-71
2021/03/28 06:15:34;;;;;;;13.20;9.70;;;4.90;90.10;;;;;;2015410;29;20041;-71
2021/03/28 06:17:00;;;;;;;12.50;8.70;;;5.00;89.80;;;;;;2015819;29;20119;-72
2021/03/28 06:18:26;;;;;;;18.50;10.35;;;5.10;89.40;;;;;;2015811;29;20407;-72
2021/03/28 06:19:48;;;;;;;15.73;9.55;;;5.20;88.80;;;;;;2015433;29;20045;-72
2021/03/28 06:20:59;;;;;;;13.18;8.98;;;5.20;88.60;;;;;;2015625;29;20040;-71
2021/03/28 06:22:05;;;;;;;14.00;9.50;;;5.30;88.30;;;;;;2015068;29;20103;-71
2021/03/28 06:23:24;;;;;;;15.70;9.48;;;5.40;87.80;;;;;;2015597;29;20037;-70
2021/03/28 06:24:36;;;;;;;14.65;10.15;;;5.50;87.40;;;;;;2020582;29;20515;-70
2021/03/28 06:26:16;;;;;;;14.48;9.65;;;5.60;87.00;;;;;;2015751;29;20029;-70
2021/03/28 06:27:47;;;;;;;12.93;8.63;;;5.70;86.50;;;;;;2015712;29;20033;-70
2021/03/28 06:29:18;;;;;;;12.95;8.60;;;5.70;85.60;;;;;;2015561;29;20095;-71
2021/03/28 06:30:44;;;;;;;;;;;5.70;84.70;;;;;;2015298;29;20037;-70
2021/03/28 06:32:11;;;;;;;12.50;7.68;;;5.70;84.10;;;;;;2010595;29;20220;-70
2021/03/28 06:33:37;;;;;;;11.02;7.38;;;5.70;84.00;;;;;;2015303;29;20059;-69
2021/03/28 06:35:02;;;;;;;14.02;7.40;;;5.70;83.80;;;;;;2015013;29;20099;-69
2021/03/28 06:36:17;;;;;;;11.00;7.30;;;5.70;83.70;;;;;;2010340;29;20042;-70
2021/03/28 06:37:26;;;;;;;11.13;6.97;;;5.70;84.10;;;;;;2009141;29;20037;-70
2021/03/28 06:38:44;;;;;;;10.60;6.63;;;5.80;84.40;;;;;;2015959;29;20183;-69
2021/03/28 06:39:57;;;;;;;10.68;6.65;;;5.80;84.20;;;;;;2014911;29;20116;-70
2021/03/28 06:41:29;;;;;;;11.35;6.50;;;5.90;84.10;;;;;;2015240;29;20793;-69
2021/03/28 06:42:48;;;;;;;11.32;7.30;;;5.90;83.50;;;;;;2015703;29;20180;-70
2021/03/28 06:44:11;;;;;;;11.60;7.32;;;5.90;82.80;;;;;;2015671;29;20021;-70
2021/03/28 06:45:38;;;;;;;10.32;7.10;;;6.00;82.40;;;;;;2015531;29;20508;-70
2021/03/28 06:47:10;;;;;;;12.02;7.35;;;6.00;82.20;;;;;;2023856;29;20397;-70
2021/03/28 06:49:02;;;;;;;12.60;7.43;;;6.00;81.90;;;;;;2016325;29;20044;-71
2021/03/28 06:50:32;;;;;;;10.95;7.55;;;5.90;81.90;;;;;;2047104;28;20043;-71
2021/03/28 06:51:47;;;;;;;12.48;7.90;;;6.00;82.10;;;;;;2016974;29;20436;-70
2021/03/28 06:52:59;;;;;;;9.77;7.30;;;6.00;82.10;;;;;;2016882;29;20481;-71
2021/03/28 06:54:37;;;;;;;13.18;8.10;;;6.00;82.20;;;;;;2016918;29;20212;-70
2021/03/28 06:55:47;;;;;;;12.55;7.50;;;6.00;82.20;;;;;;2016162;29;20108;-71
2021/03/28 06:57:07;;;;;;;11.40;7.43;;;6.00;82.00;;;;;;2016315;29;20037;-70
2021/03/28 06:58:33;;;;;;;9.77;7.40;;;6.10;81.80;;;;;;2016972;29;20481;-70
2021/03/28 07:00:08;;;;;;;14.38;7.45;;;6.10;81.50;;;;;;2016630;29;20501;-70
2021/03/28 07:01:40;;;;;;;12.60;7.63;;;6.10;81.90;;;;;;2016764;29;20029;-70
2021/03/28 07:03:02;;;;;;;13.38;6.80;;;6.10;82.00;;;;;;2016043;29;20092;-70
2021/03/28 07:04:24;;;;;;;11.50;6.80;;;6.10;80.20;;;;;;2010974;29;20330;-70
2021/03/28 07:05:46;;;;;;;11.05;6.28;;;6.10;80.40;;;;;;2016464;29;20048;-70